createdAt,value
2023-03-26T00:01:19.379Z,53.10
2023-03-26T00:03:47.191Z,52.51
2023-03-26T00:06:17.156Z,51.45
2023-03-26T00:08:45.857Z,51.53
2023-03-26T00:11:15.788Z,50.85
2023-03-26T00:13:45.545Z,51.27
2023-03-26T00:16:18.178Z,51.19
2023-03-26T00:18:45.013Z,50.68
2023-03-26T00:21:21.353Z,50.56
2023-03-26T00:23:49.328Z,52.93
2023-03-26T00:26:17.531Z,54.13
2023-03-26T00:28:44.731Z,54.37
2023-03-26T00:31:15.549Z,53.65
2023-03-26T00:33:43.840Z,53.74
2023-03-26T00:36:16.816Z,54.01
2023-03-26T00:38:46.950Z,54.08
2023-03-26T00:41:23.158Z,54.13
2023-03-26T00:43:53.471Z,54.49
2023-03-26T00:46:20.522Z,53.88
2023-03-26T00:48:47.221Z,52.97
2023-03-26T00:51:16.851Z,52.91
2023-03-26T00:53:48.091Z,52.57
2023-03-26T00:56:14.962Z,51.91
2023-03-26T00:58:41.931Z,51.56
2023-03-26T01:01:14.487Z,51.16
2023-03-26T01:03:52.979Z,50.67
2023-03-26T01:06:32.888Z,50.70
2023-03-26T01:09:06.877Z,50.64
2023-03-26T01:11:35.790Z,50.45
2023-03-26T01:14:18.706Z,50.96
2023-03-26T01:16:53.103Z,50.98
2023-03-26T01:19:49.810Z,50.77
2023-03-26T01:22:19.720Z,49.94
2023-03-26T01:24:53.206Z,49.27
2023-03-26T01:27:49.211Z,48.95
2023-03-26T01:30:41.643Z,48.44
2023-03-26T01:33:34.072Z,48.55
2023-03-26T01:36:04.623Z,47.51
2023-03-26T01:39:01.659Z,47.04
2023-03-26T01:41:43.525Z,48.15
2023-03-26T01:44:22.946Z,50.20
2023-03-26T01:46:51.486Z,50.04
2023-03-26T01:49:18.651Z,50.01
2023-03-26T01:51:45.347Z,50.61
2023-03-26T01:54:19.987Z,50.33
2023-03-26T01:57:04.891Z,50.65
2023-03-26T01:59:53.423Z,50.21
2023-03-26T02:02:39.083Z,50.65
2023-03-26T02:05:17.598Z,50.14
2023-03-26T02:08:05.819Z,50.88
2023-03-26T02:10:38.347Z,51.07
2023-03-26T02:13:06.194Z,50.77
2023-03-26T02:15:33.606Z,50.79
2023-03-26T02:18:02.022Z,50.63
2023-03-26T02:20:30.172Z,50.24
2023-03-26T02:22:57.630Z,50.36
2023-03-26T02:25:24.957Z,49.93
2023-03-26T02:27:53.028Z,49.50
2023-03-26T02:30:29.748Z,49.26
2023-03-26T02:33:00.054Z,48.97
2023-03-26T02:35:33.171Z,48.80
2023-03-26T02:38:01.234Z,48.29
2023-03-26T02:40:28.020Z,47.59
2023-03-26T02:42:55.474Z,47.30
2023-03-26T02:45:23.325Z,47.49
2023-03-26T02:48:13.517Z,47.39
2023-03-26T02:50:56.957Z,47.45
2023-03-26T02:53:29.963Z,49.80
2023-03-26T02:56:13.178Z,50.69
2023-03-26T02:58:48.377Z,51.70
2023-03-26T03:01:18.476Z,51.89
2023-03-26T03:03:52.138Z,50.74
2023-03-26T03:06:32.583Z,51.55
2023-03-26T03:08:59.468Z,51.88
2023-03-26T03:11:36.500Z,52.82
2023-03-26T03:14:04.601Z,53.02
2023-03-26T03:16:32.852Z,52.69
2023-03-26T03:19:06.238Z,52.81
2023-03-26T03:21:38.284Z,52.62
2023-03-26T03:24:05.606Z,52.73
2023-03-26T03:26:42.424Z,53.05
2023-03-26T03:29:19.552Z,52.86
2023-03-26T03:31:48.024Z,52.60
2023-03-26T03:34:27.788Z,52.56
2023-03-26T03:36:54.389Z,52.61
2023-03-26T03:39:31.687Z,52.53
2023-03-26T03:41:59.316Z,53.51
2023-03-26T03:44:26.692Z,53.18
2023-03-26T03:46:55.597Z,53.55
2023-03-26T03:49:23.090Z,53.83
2023-03-26T03:51:49.919Z,54.26
2023-03-26T03:54:24.717Z,54.60
2023-03-26T03:57:11.658Z,54.56
2023-03-26T04:00:01.616Z,55.44
2023-03-26T04:02:43.172Z,55.55
2023-03-26T04:05:11.930Z,55.84
2023-03-26T04:07:44.101Z,56.34
2023-03-26T04:10:26.137Z,56.39
2023-03-26T04:13:24.764Z,55.85
2023-03-26T04:16:10.748Z,55.55
2023-03-26T04:18:38.379Z,56.52
2023-03-26T04:21:12.418Z,56.83
2023-03-26T04:23:39.188Z,56.61
2023-03-26T04:26:19.983Z,56.40
2023-03-26T04:29:04.709Z,55.94
2023-03-26T04:31:34.256Z,55.64
2023-03-26T04:34:14.686Z,55.11
2023-03-26T04:36:55.092Z,54.67
2023-03-26T04:39:29.263Z,54.45
2023-03-26T04:42:19.954Z,54.44
2023-03-26T04:45:11.758Z,54.72
2023-03-26T04:47:39.770Z,54.64
2023-03-26T04:50:09.338Z,54.79
2023-03-26T04:52:37.510Z,54.65
2023-03-26T04:55:33.078Z,54.51
2023-03-26T04:58:05.958Z,54.28
2023-03-26T05:00:49.755Z,54.17
2023-03-26T05:03:16.969Z,54.33
2023-03-26T05:05:44.086Z,54.31
2023-03-26T05:08:10.897Z,54.42
2023-03-26T05:10:38.088Z,54.51
2023-03-26T05:13:11.462Z,54.69
2023-03-26T05:15:40.492Z,54.72
2023-03-26T05:18:19.789Z,54.65
2023-03-26T05:20:49.669Z,54.98
2023-03-26T05:23:17.075Z,54.56
2023-03-26T05:26:04.253Z,54.76
2023-03-26T05:28:30.982Z,54.87
2023-03-26T05:31:07.089Z,55.04
2023-03-26T05:33:36.755Z,55.01
2023-03-26T05:36:13.399Z,54.88
2023-03-26T05:38:47.344Z,54.99
2023-03-26T05:41:17.170Z,55.18
2023-03-26T05:43:48.244Z,55.03
2023-03-26T05:46:20.603Z,55.37
2023-03-26T05:48:47.792Z,54.95
2023-03-26T05:51:17.911Z,54.86
2023-03-26T05:53:55.881Z,54.71
2023-03-26T05:57:01.062Z,55.06
2023-03-26T05:59:46.687Z,54.89
2023-03-26T06:02:39.325Z,54.52
2023-03-26T06:05:32.657Z,54.05
2023-03-26T06:08:21.877Z,53.60
2023-03-26T06:10:51.561Z,53.53
2023-03-26T06:13:19.112Z,53.41
2023-03-26T06:15:47.431Z,53.29
2023-03-26T06:18:23.146Z,52.81
2023-03-26T06:21:09.770Z,52.67
2023-03-26T06:23:44.476Z,53.19
2023-03-26T06:26:37.253Z,53.40
2023-03-26T06:29:27.227Z,52.82
2023-03-26T06:32:18.409Z,54.48
2023-03-26T06:34:57.200Z,54.03
2023-03-26T06:37:24.242Z,54.16
2023-03-26T06:39:56.232Z,53.14
2023-03-26T06:43:09.397Z,53.54
2023-03-26T06:45:40.863Z,53.00
2023-03-26T06:48:26.399Z,52.34
2023-03-26T06:51:17.968Z,52.17
2023-03-26T06:54:03.321Z,52.41
2023-03-26T06:56:45.253Z,52.71
2023-03-26T06:59:34.887Z,52.55
2023-03-26T07:02:20.807Z,52.24
2023-03-26T07:05:06.398Z,51.88
2023-03-26T07:07:51.633Z,51.58
2023-03-26T07:10:37.092Z,51.14
2023-03-26T07:13:24.417Z,50.78
2023-03-26T07:16:20.199Z,50.26
2023-03-26T07:19:19.589Z,50.00
2023-03-26T07:21:47.981Z,50.10
2023-03-26T07:24:32.826Z,49.18
2023-03-26T07:27:36.211Z,48.69
2023-03-26T07:30:29.849Z,49.11
2023-03-26T07:33:33.969Z,48.59
2023-03-26T07:36:40.953Z,48.19
2023-03-26T07:39:45.069Z,46.80
2023-03-26T07:42:41.449Z,47.34
2023-03-26T07:45:40.890Z,46.40
2023-03-26T07:48:27.221Z,46.44
2023-03-26T07:51:29.670Z,47.18
2023-03-26T07:54:13.831Z,47.62
2023-03-26T07:57:08.136Z,48.34
2023-03-26T07:59:43.831Z,48.44
2023-03-26T08:03:07.335Z,48.69
2023-03-26T08:06:14.917Z,48.62
2023-03-26T08:09:20.743Z,48.80
2023-03-26T08:12:26.024Z,48.97
2023-03-26T08:15:12.293Z,48.95
2023-03-26T08:17:51.589Z,48.72
2023-03-26T08:20:44.062Z,48.44
2023-03-26T08:23:32.688Z,48.55
2023-03-26T08:26:06.699Z,48.47
2023-03-26T08:28:55.450Z,47.66
2023-03-26T08:31:33.919Z,48.47
2023-03-26T08:34:01.583Z,48.47
2023-03-26T08:36:28.428Z,48.70
2023-03-26T08:38:55.343Z,48.77
2023-03-26T08:41:30.122Z,49.31
2023-03-26T08:44:23.981Z,49.93
2023-03-26T08:47:18.441Z,50.51
2023-03-26T08:50:17.347Z,51.22
2023-03-26T08:53:02.127Z,51.38
2023-03-26T08:55:52.782Z,50.10
2023-03-26T08:58:35.213Z,49.95
2023-03-26T09:01:49.545Z,48.04
2023-03-26T09:04:25.237Z,46.90
2023-03-26T09:07:10.675Z,47.56
2023-03-26T09:09:52.051Z,47.06
2023-03-26T09:12:54.206Z,46.68
2023-03-26T09:15:36.102Z,45.45
2023-03-26T09:18:16.682Z,45.18
2023-03-26T09:21:25.611Z,45.30
2023-03-26T09:24:27.850Z,45.72
2023-03-26T09:27:00.599Z,45.62
2023-03-26T09:29:39.221Z,45.78
2023-03-26T09:32:55.643Z,45.41
2023-03-26T09:35:44.229Z,45.25
2023-03-26T09:38:29.573Z,45.47
2023-03-26T09:41:08.250Z,45.12
2023-03-26T09:43:54.514Z,45.29
2023-03-26T09:46:21.542Z,45.64
2023-03-26T09:49:30.706Z,45.54
2023-03-26T09:52:31.826Z,45.84
2023-03-26T09:55:23.620Z,46.13
2023-03-26T09:57:58.456Z,46.26
2023-03-26T10:01:05.811Z,46.26
2023-03-26T10:04:20.949Z,46.33
2023-03-26T10:07:05.991Z,47.37
2023-03-26T10:09:54.408Z,47.01
2023-03-26T10:12:24.604Z,47.04
2023-03-26T10:15:08.783Z,46.91
2023-03-26T10:18:26.712Z,47.07
2023-03-26T10:20:57.449Z,48.55
2023-03-26T10:23:45.310Z,49.20
2023-03-26T10:26:21.494Z,49.77
2023-03-26T10:28:54.315Z,50.78
2023-03-26T10:31:37.010Z,51.15
2023-03-26T10:34:38.606Z,51.21
2023-03-26T10:37:32.944Z,51.45
2023-03-26T10:40:31.002Z,51.79
2023-03-26T10:43:28.977Z,51.92
2023-03-26T10:45:59.384Z,51.26
2023-03-26T10:48:42.083Z,51.22
2023-03-26T10:51:27.508Z,51.00
2023-03-26T10:54:06.273Z,50.60
2023-03-26T10:56:44.147Z,50.35
2023-03-26T10:59:16.344Z,50.52
2023-03-26T11:02:10.458Z,50.68
2023-03-26T11:04:54.149Z,49.59
2023-03-26T11:07:27.168Z,49.36
2023-03-26T11:10:17.090Z,49.16
2023-03-26T11:13:13.597Z,49.50
2023-03-26T11:15:50.105Z,48.23
2023-03-26T11:18:23.079Z,46.97
2023-03-26T11:21:18.622Z,46.96
2023-03-26T11:24:22.924Z,45.24
2023-03-26T11:26:49.454Z,45.23
2023-03-26T11:29:48.269Z,44.81
2023-03-26T11:32:22.801Z,44.54
2023-03-26T11:34:52.800Z,45.51
2023-03-26T11:37:31.946Z,45.41
2023-03-26T11:40:06.218Z,45.72
2023-03-26T11:42:33.056Z,44.99
2023-03-26T11:45:06.640Z,45.46
2023-03-26T11:47:42.642Z,44.64
2023-03-26T11:50:18.686Z,44.60
2023-03-26T11:52:47.064Z,44.55
2023-03-26T11:55:14.167Z,45.21
2023-03-26T11:57:49.117Z,45.19
2023-03-26T12:00:21.158Z,45.55
2023-03-26T12:02:49.109Z,45.69
2023-03-26T12:05:20.603Z,44.48
2023-03-26T12:07:52.751Z,44.92
2023-03-26T12:10:38.137Z,45.24
2023-03-26T12:13:36.202Z,45.83
2023-03-26T12:16:16.820Z,45.19
2023-03-26T12:18:45.694Z,45.62
2023-03-26T12:21:18.878Z,45.85
2023-03-26T12:23:58.435Z,46.32
2023-03-26T12:26:41.862Z,45.47
2023-03-26T12:29:13.140Z,45.91
2023-03-26T12:31:54.496Z,45.97
2023-03-26T12:34:23.907Z,45.47
2023-03-26T12:36:56.008Z,44.93
2023-03-26T12:40:07.431Z,45.11
2023-03-26T12:44:48.224Z,45.40
2023-03-26T12:45:28.201Z,45.29
2023-03-26T12:48:04.039Z,45.27
2023-03-26T12:50:45.749Z,45.80
2023-03-26T12:53:41.185Z,45.99
2023-03-26T12:57:11.821Z,46.27
2023-03-26T13:00:12.581Z,46.47
2023-03-26T13:03:12.191Z,47.15
2023-03-26T13:05:40.013Z,47.89
2023-03-26T13:08:46.546Z,47.95
2023-03-26T13:11:50.999Z,48.53
2023-03-26T13:14:38.816Z,48.91
2023-03-26T13:17:25.754Z,49.26
2023-03-26T13:20:12.226Z,49.39
2023-03-26T13:22:58.605Z,49.03
2023-03-26T13:25:58.164Z,48.95
2023-03-26T13:28:49.344Z,49.79
2023-03-26T13:31:22.131Z,49.89
2023-03-26T13:34:10.411Z,49.93
2023-03-26T13:37:07.577Z,50.44
2023-03-26T13:40:15.481Z,50.51
2023-03-26T13:43:01.680Z,50.37
2023-03-26T13:45:40.768Z,50.46
2023-03-26T13:48:33.595Z,51.35
2023-03-26T13:51:14.606Z,51.37
2023-03-26T13:53:54.891Z,51.60
2023-03-26T13:56:29.599Z,51.72
2023-03-26T13:59:08.980Z,51.79
2023-03-26T14:01:43.804Z,51.41
2023-03-26T14:04:21.606Z,51.52
2023-03-26T14:06:57.687Z,51.75
2023-03-26T14:09:31.893Z,52.47
2023-03-26T14:12:08.543Z,52.66
2023-03-26T14:15:02.199Z,52.92
2023-03-26T14:17:41.593Z,53.29
2023-03-26T14:20:24.019Z,53.76
2023-03-26T14:23:12.642Z,53.74
2023-03-26T14:25:42.111Z,53.55
2023-03-26T14:29:05.999Z,53.76
2023-03-26T14:31:57.765Z,55.23
2023-03-26T14:34:46.943Z,54.72
2023-03-26T14:37:17.874Z,54.40
2023-03-26T14:40:15.174Z,55.05
2023-03-26T14:42:55.216Z,57.11
2023-03-26T14:45:48.301Z,58.92
2023-03-26T14:48:30.154Z,61.13
2023-03-26T14:51:27.942Z,61.51
2023-03-26T14:54:01.349Z,60.10
2023-03-26T14:57:13.027Z,63.18
2023-03-26T15:00:17.366Z,62.79
2023-03-26T15:03:30.760Z,61.21
2023-03-26T15:06:31.024Z,63.67
2023-03-26T15:09:09.927Z,65.55
2023-03-26T15:11:51.899Z,66.40
2023-03-26T15:14:56.042Z,67.49
2023-03-26T15:18:01.369Z,68.35
2023-03-26T15:20:58.964Z,69.29
2023-03-26T15:23:44.255Z,69.28
2023-03-26T15:26:49.778Z,70.12
2023-03-26T15:29:16.452Z,69.97
2023-03-26T15:32:06.043Z,69.52
2023-03-26T15:34:48.720Z,69.95
2023-03-26T15:37:26.766Z,70.71
2023-03-26T15:40:17.834Z,71.06
2023-03-26T15:43:06.019Z,70.32
2023-03-26T15:45:49.983Z,70.37
2023-03-26T15:48:37.476Z,70.98
2023-03-26T15:51:31.502Z,71.22
2023-03-26T15:54:35.782Z,71.17
2023-03-26T15:57:23.396Z,71.44
2023-03-26T16:00:19.374Z,72.50
2023-03-26T16:03:10.414Z,72.16
2023-03-26T16:05:43.000Z,72.16
2023-03-26T16:08:19.056Z,72.10
2023-03-26T16:10:51.431Z,71.69
2023-03-26T16:13:34.811Z,71.85
2023-03-26T16:16:04.413Z,72.43
2023-03-26T16:18:35.878Z,71.70
2023-03-26T16:21:05.236Z,71.88
2023-03-26T16:23:47.790Z,72.78
2023-03-26T16:26:23.884Z,73.43
2023-03-26T16:28:51.636Z,73.64
2023-03-26T16:31:37.712Z,72.23
2023-03-26T16:34:07.183Z,72.96
2023-03-26T16:36:37.029Z,72.15
2023-03-26T16:39:07.253Z,73.08
2023-03-26T16:41:56.492Z,72.72
2023-03-26T16:44:52.870Z,72.72
2023-03-26T16:47:40.513Z,73.55
2023-03-26T16:50:26.039Z,72.34
2023-03-26T16:53:29.961Z,70.29
2023-03-26T16:56:02.938Z,69.21
2023-03-26T16:58:31.529Z,69.03
2023-03-26T17:01:11.005Z,69.00
2023-03-26T17:03:54.100Z,69.58
2023-03-26T17:06:30.825Z,69.99
2023-03-26T17:09:19.395Z,69.61
2023-03-26T17:12:12.683Z,69.42
2023-03-26T17:15:01.628Z,70.29
2023-03-26T17:17:39.468Z,70.72
2023-03-26T17:20:33.022Z,71.95
2023-03-26T17:23:29.359Z,71.91
2023-03-26T17:26:22.698Z,72.53
2023-03-26T17:29:32.919Z,72.50
2023-03-26T17:32:09.501Z,72.10
2023-03-26T17:34:38.904Z,73.10
2023-03-26T17:37:18.880Z,72.53
2023-03-26T17:39:46.924Z,73.26
2023-03-26T17:42:13.893Z,73.75
2023-03-26T17:44:44.440Z,72.97
2023-03-26T17:47:26.488Z,72.83
2023-03-26T17:50:22.886Z,73.37
2023-03-26T17:52:56.566Z,74.02
2023-03-26T17:55:30.644Z,73.69
2023-03-26T17:58:00.250Z,73.59
2023-03-26T18:00:40.107Z,73.61
2023-03-26T18:03:24.227Z,73.60
2023-03-26T18:05:56.706Z,72.60
2023-03-26T18:08:49.378Z,72.10
2023-03-26T18:11:34.104Z,72.49
2023-03-26T18:14:48.583Z,73.39
2023-03-26T18:17:16.029Z,72.58
2023-03-26T18:19:53.736Z,73.09
2023-03-26T18:22:27.771Z,73.34
2023-03-26T18:25:00.156Z,73.39
2023-03-26T18:27:36.215Z,73.12
2023-03-26T18:30:15.117Z,73.10
2023-03-26T18:33:03.618Z,72.85
2023-03-26T18:35:46.248Z,73.11
2023-03-26T18:38:19.336Z,73.07
2023-03-26T18:41:05.895Z,73.76
2023-03-26T18:43:35.566Z,73.52
2023-03-26T18:46:12.158Z,73.81
2023-03-26T18:48:39.544Z,74.07
2023-03-26T18:51:07.247Z,73.45
2023-03-26T18:53:41.227Z,72.16
2023-03-26T18:56:27.353Z,72.02
2023-03-26T18:58:57.841Z,71.99
2023-03-26T19:01:30.686Z,72.76
2023-03-26T19:03:59.876Z,75.04
2023-03-26T19:06:26.846Z,74.69
2023-03-26T19:08:54.559Z,74.51
2023-03-26T19:11:21.958Z,75.15
2023-03-26T19:14:04.054Z,74.63
2023-03-26T19:16:35.427Z,75.19
2023-03-26T19:19:06.482Z,75.10
2023-03-26T19:21:34.702Z,74.64
2023-03-26T19:24:03.905Z,74.82
2023-03-26T19:26:31.646Z,74.49
2023-03-26T19:28:58.822Z,74.65
2023-03-26T19:31:35.283Z,74.44
2023-03-26T19:34:13.935Z,74.62
2023-03-26T19:37:01.658Z,74.65
2023-03-26T19:39:51.093Z,74.37
2023-03-26T19:42:23.990Z,74.07
2023-03-26T19:44:51.813Z,73.79
2023-03-26T19:47:19.982Z,73.72
2023-03-26T19:49:53.080Z,73.82
2023-03-26T19:52:37.152Z,73.84
2023-03-26T19:55:06.896Z,74.00
2023-03-26T19:57:36.505Z,73.92
2023-03-26T20:00:09.390Z,74.18
2023-03-26T20:02:36.433Z,74.12
2023-03-26T20:05:03.080Z,73.88
2023-03-26T20:10:16.970Z,73.67
2023-03-26T20:12:43.644Z,73.63
2023-03-26T20:15:22.885Z,73.50
2023-03-26T20:17:52.433Z,73.53
2023-03-26T20:20:19.406Z,73.69
2023-03-26T20:22:47.386Z,72.96
2023-03-26T20:25:22.124Z,72.94
2023-03-26T20:27:48.876Z,73.62
2023-03-26T20:30:19.032Z,74.06
2023-03-26T20:32:46.002Z,74.09
2023-03-26T20:35:16.176Z,73.46
2023-03-26T20:37:43.096Z,73.01
2023-03-26T20:40:09.973Z,73.49
2023-03-26T20:42:36.567Z,74.99
2023-03-26T20:45:14.591Z,74.72
2023-03-26T20:47:41.262Z,75.46
2023-03-26T20:50:10.535Z,75.96
2023-03-26T20:52:37.375Z,75.11
2023-03-26T20:55:04.241Z,74.91
2023-03-26T20:57:33.618Z,74.70
2023-03-26T21:00:00.562Z,74.90
2023-03-26T21:02:27.317Z,74.63
2023-03-26T21:04:54.014Z,74.57
2023-03-26T21:07:20.637Z,74.72
2023-03-26T21:09:48.689Z,74.21
2023-03-26T21:12:28.171Z,74.02
2023-03-26T21:14:55.865Z,73.98
2023-03-26T21:17:23.652Z,73.58
2023-03-26T21:19:50.670Z,72.69
2023-03-26T21:22:43.527Z,72.66
2023-03-26T21:25:17.542Z,73.08
2023-03-26T21:28:02.508Z,73.06
2023-03-26T21:30:29.501Z,72.80
2023-03-26T21:32:56.227Z,72.88
2023-03-26T21:35:23.523Z,73.19
2023-03-26T21:37:50.724Z,72.79
2023-03-26T21:40:19.067Z,73.10
2023-03-26T21:42:48.564Z,72.72
2023-03-26T21:45:15.815Z,72.58
2023-03-26T21:47:42.819Z,72.75
2023-03-26T21:50:12.416Z,73.25
2023-03-26T21:52:47.084Z,73.32
2023-03-26T21:55:18.988Z,73.42
2023-03-26T21:57:54.640Z,73.25
2023-03-26T22:00:33.585Z,73.02
2023-03-26T22:03:13.860Z,72.87
2023-03-26T22:05:48.292Z,72.22
2023-03-26T22:08:38.700Z,72.18
2023-03-26T22:11:06.741Z,71.87
2023-03-26T22:13:38.558Z,71.98
2023-03-26T22:16:07.829Z,72.41
2023-03-26T22:18:35.483Z,72.76
2023-03-26T22:21:02.538Z,72.53
2023-03-26T22:23:36.272Z,72.95
2023-03-26T22:26:04.530Z,72.64
2023-03-26T22:28:32.028Z,72.06
2023-03-26T22:30:59.205Z,71.88
2023-03-26T22:33:26.843Z,71.97
2023-03-26T22:35:55.985Z,71.69
2023-03-26T22:38:23.066Z,71.54
2023-03-26T22:40:57.643Z,71.57
2023-03-26T22:43:24.733Z,71.31
2023-03-26T22:45:53.810Z,71.07
2023-03-26T22:48:22.538Z,70.93
2023-03-26T22:51:09.153Z,71.21
2023-03-26T22:53:36.594Z,71.18
2023-03-26T22:56:04.248Z,70.86
2023-03-26T22:58:33.777Z,70.63
2023-03-26T23:01:17.707Z,70.68
2023-03-26T23:03:44.912Z,70.38
2023-03-26T23:06:12.242Z,70.52
2023-03-26T23:08:40.453Z,70.49
2023-03-26T23:11:18.304Z,70.46
2023-03-26T23:13:46.446Z,70.28
2023-03-26T23:16:14.847Z,69.78
2023-03-26T23:18:42.019Z,69.66
2023-03-26T23:21:17.000Z,69.60
2023-03-26T23:23:44.414Z,69.13
2023-03-26T23:26:11.528Z,70.10
2023-03-26T23:28:38.656Z,70.51
2023-03-26T23:31:08.105Z,71.68
2023-03-26T23:33:37.556Z,72.25
2023-03-26T23:36:09.342Z,72.61
2023-03-26T23:38:44.301Z,72.67
2023-03-26T23:41:15.800Z,71.73
2023-03-26T23:43:53.971Z,71.65
2023-03-26T23:46:30.944Z,71.33
2023-03-26T23:49:00.021Z,71.19
2023-03-26T23:51:27.000Z,72.47
2023-03-26T23:53:53.823Z,72.22
2023-03-26T23:56:21.090Z,72.28
2023-03-26T23:58:49.099Z,71.71
